createdAt,value
2023-03-24T00:02:08.509Z,9.50
2023-03-24T00:04:36.810Z,9.40
2023-03-24T00:07:04.984Z,9.40
2023-03-24T00:09:33.890Z,9.40
2023-03-24T00:12:02.289Z,9.40
2023-03-24T00:14:30.964Z,9.50
2023-03-24T00:16:59.959Z,9.50
2023-03-24T00:19:28.474Z,9.50
2023-03-24T00:21:56.597Z,9.50
2023-03-24T00:24:25.494Z,9.40
2023-03-24T00:26:57.802Z,9.30
2023-03-24T00:29:26.339Z,9.30
2023-03-24T00:31:54.654Z,9.20
2023-03-24T00:34:24.021Z,9.10
2023-03-24T00:36:54.030Z,9.00
2023-03-24T00:39:22.115Z,9.00
2023-03-24T00:41:50.201Z,8.90
2023-03-24T00:44:18.794Z,8.90
2023-03-24T00:46:56.041Z,8.90
2023-03-24T00:49:53.376Z,9.00
2023-03-24T00:52:25.201Z,8.90
2023-03-24T00:54:58.377Z,8.70
2023-03-24T00:57:30.029Z,8.70
2023-03-24T00:59:58.118Z,8.80
2023-03-24T01:02:28.959Z,8.90
2023-03-24T01:05:00.164Z,8.90
2023-03-24T01:07:33.781Z,9.00
2023-03-24T01:10:03.077Z,9.10
2023-03-24T01:12:34.720Z,9.00
2023-03-24T01:15:10.161Z,9.00
2023-03-24T01:17:38.653Z,9.00
2023-03-24T01:20:11.043Z,9.00
2023-03-24T01:22:45.048Z,8.90
2023-03-24T01:25:21.055Z,8.80
2023-03-24T01:27:51.194Z,8.90
2023-03-24T01:30:23.197Z,8.90
2023-03-24T01:32:53.351Z,8.70
2023-03-24T01:35:23.230Z,8.70
2023-03-24T01:37:51.611Z,8.60
2023-03-24T01:40:23.940Z,8.60
2023-03-24T01:42:52.257Z,8.50
2023-03-24T01:45:57.562Z,8.30
2023-03-24T01:49:02.862Z,8.30
2023-03-24T01:51:53.261Z,8.20
2023-03-24T01:54:27.597Z,8.20
2023-03-24T01:57:07.120Z,8.30
2023-03-24T01:59:42.627Z,8.30
2023-03-24T02:02:15.251Z,8.40
2023-03-24T02:04:59.705Z,8.40
2023-03-24T02:07:48.154Z,8.40
2023-03-24T02:10:19.207Z,8.40
2023-03-24T02:12:48.701Z,8.40
2023-03-24T02:15:19.840Z,8.30
2023-03-24T02:18:03.565Z,8.20
2023-03-24T02:20:52.456Z,8.30
2023-03-24T02:23:38.944Z,8.30
2023-03-24T02:26:36.709Z,8.40
2023-03-24T02:29:05.183Z,8.30
2023-03-24T02:31:58.106Z,8.40
2023-03-24T02:34:29.286Z,8.40
2023-03-24T02:37:32.839Z,8.40
2023-03-24T02:40:45.454Z,8.30
2023-03-24T02:43:28.465Z,8.30
2023-03-24T02:45:57.115Z,8.30
2023-03-24T02:48:35.361Z,8.30
2023-03-24T02:51:20.586Z,8.30
2023-03-24T02:53:48.873Z,8.20
2023-03-24T02:57:04.426Z,8.00
2023-03-24T03:00:18.508Z,7.90
2023-03-24T03:03:10.224Z,7.90
2023-03-24T03:06:05.580Z,7.90
2023-03-24T03:08:35.362Z,7.90
2023-03-24T03:11:07.980Z,7.90
2023-03-24T03:13:44.607Z,7.70
2023-03-24T03:16:38.621Z,7.60
2023-03-24T03:19:18.118Z,7.70
2023-03-24T03:21:49.878Z,7.60
2023-03-24T03:24:27.568Z,7.60
2023-03-24T03:27:06.175Z,7.50
2023-03-24T03:29:40.223Z,7.50
2023-03-24T03:32:16.441Z,7.50
2023-03-24T03:34:56.940Z,7.50
2023-03-24T03:37:35.770Z,7.50
2023-03-24T03:40:09.966Z,7.50
2023-03-24T03:42:42.103Z,7.40
2023-03-24T03:45:12.575Z,7.40
2023-03-24T03:47:41.487Z,7.40
2023-03-24T03:50:10.940Z,7.40
2023-03-24T03:52:40.058Z,7.40
2023-03-24T03:55:09.665Z,7.40
2023-03-24T03:57:38.317Z,7.40
2023-03-24T04:00:20.584Z,7.30
2023-03-24T04:03:17.780Z,7.30
2023-03-24T04:05:54.004Z,7.30
2023-03-24T04:08:46.256Z,7.30
2023-03-24T04:11:46.677Z,7.30
2023-03-24T04:14:44.595Z,7.40
2023-03-24T04:17:57.544Z,7.50
2023-03-24T04:21:06.566Z,7.40
2023-03-24T04:23:45.042Z,7.30
2023-03-24T04:26:26.892Z,7.30
2023-03-24T04:29:18.560Z,7.30
2023-03-24T04:32:03.647Z,7.20
2023-03-24T04:34:45.713Z,7.20
2023-03-24T04:37:38.262Z,7.20
2023-03-24T04:40:22.890Z,7.20
2023-03-24T04:42:55.144Z,7.20
2023-03-24T04:45:28.714Z,7.20
2023-03-24T04:48:19.094Z,7.30
2023-03-24T04:51:07.921Z,7.40
2023-03-24T04:53:56.899Z,7.30
2023-03-24T04:56:40.849Z,7.30
2023-03-24T04:59:18.753Z,7.30
2023-03-24T05:01:50.372Z,7.30
2023-03-24T05:04:48.298Z,7.30
2023-03-24T05:07:45.447Z,7.30
2023-03-24T05:10:20.114Z,7.30
2023-03-24T05:12:54.807Z,7.30
2023-03-24T05:15:29.028Z,7.20
2023-03-24T05:18:09.640Z,7.20
2023-03-24T05:20:39.805Z,7.10
2023-03-24T05:23:41.493Z,7.10
2023-03-24T05:26:09.779Z,7.10
2023-03-24T05:28:51.407Z,7.20
2023-03-24T05:31:19.986Z,7.10
2023-03-24T05:33:52.636Z,7.30
2023-03-24T05:36:22.579Z,7.50
2023-03-24T05:38:59.991Z,7.50
2023-03-24T05:41:39.042Z,7.60
2023-03-24T05:44:07.613Z,7.60
2023-03-24T05:46:36.205Z,7.80
2023-03-24T05:49:05.498Z,8.00
2023-03-24T05:51:36.872Z,8.00
2023-03-24T05:54:08.998Z,8.40
2023-03-24T05:56:44.828Z,8.70
2023-03-24T05:59:15.966Z,9.00
2023-03-24T06:02:10.563Z,9.10
2023-03-24T06:04:53.438Z,9.20
2023-03-24T06:07:26.992Z,8.90
2023-03-24T06:10:03.044Z,8.90
2023-03-24T06:12:39.317Z,9.30
2023-03-24T06:15:08.757Z,9.70
2023-03-24T06:17:37.884Z,9.90
2023-03-24T06:20:18.766Z,10.10
2023-03-24T06:23:10.586Z,10.20
2023-03-24T06:26:10.220Z,10.40
2023-03-24T06:28:44.983Z,10.40
2023-03-24T06:31:21.582Z,10.30
2023-03-24T06:33:53.459Z,9.90
2023-03-24T06:36:23.668Z,9.80
2023-03-24T06:38:53.356Z,9.60
2023-03-24T06:41:23.766Z,9.60
2023-03-24T06:43:57.247Z,9.40
2023-03-24T06:46:25.487Z,9.40
2023-03-24T06:48:54.078Z,9.30
2023-03-24T06:51:22.244Z,9.40
2023-03-24T06:53:50.526Z,9.50
2023-03-24T06:56:20.360Z,9.50
2023-03-24T06:58:58.901Z,9.50
2023-03-24T07:01:32.622Z,9.40
2023-03-24T07:04:07.511Z,9.40
2023-03-24T07:06:49.929Z,9.40
2023-03-24T07:09:26.254Z,9.40
2023-03-24T07:11:54.875Z,9.40
2023-03-24T07:14:26.419Z,9.60
2023-03-24T07:16:56.308Z,9.60
2023-03-24T07:19:46.158Z,9.70
2023-03-24T07:22:47.054Z,9.70
2023-03-24T07:25:27.550Z,10.00
2023-03-24T07:28:08.464Z,10.10
2023-03-24T07:30:52.146Z,10.00
2023-03-24T07:33:25.055Z,10.00
2023-03-24T07:35:57.648Z,10.10
2023-03-24T07:38:27.246Z,10.10
2023-03-24T07:41:00.725Z,10.30
2023-03-24T07:43:31.073Z,10.30
2023-03-24T07:46:18.461Z,10.30
2023-03-24T07:48:47.970Z,10.30
2023-03-24T07:51:20.123Z,10.30
2023-03-24T07:53:59.128Z,10.30
2023-03-24T07:56:42.180Z,10.30
2023-03-24T07:59:12.659Z,10.30
2023-03-24T08:01:57.621Z,10.10
2023-03-24T08:04:40.026Z,10.20
2023-03-24T08:07:26.592Z,10.40
2023-03-24T08:09:55.227Z,10.50
2023-03-24T08:12:23.357Z,10.70
2023-03-24T08:14:52.480Z,10.90
2023-03-24T08:17:21.193Z,11.40
2023-03-24T08:19:59.986Z,11.60
2023-03-24T08:22:29.919Z,11.20
2023-03-24T08:24:58.189Z,11.20
2023-03-24T08:27:26.773Z,11.70
2023-03-24T08:29:54.785Z,12.30
2023-03-24T08:32:23.016Z,12.60
2023-03-24T08:34:51.089Z,13.10
2023-03-24T08:37:19.681Z,13.70
2023-03-24T08:43:08.979Z,14.70
2023-03-24T08:45:37.462Z,14.90
2023-03-24T08:48:07.928Z,15.30
2023-03-24T08:50:39.090Z,15.30
2023-03-24T08:53:09.115Z,15.50
2023-03-24T08:55:42.083Z,15.40
2023-03-24T08:58:16.176Z,14.80
2023-03-24T09:00:47.145Z,14.90
2023-03-24T09:03:22.787Z,15.60
2023-03-24T09:05:51.774Z,16.30
2023-03-24T09:08:19.960Z,16.70
2023-03-24T09:10:49.896Z,16.60
2023-03-24T09:13:19.458Z,16.40
2023-03-24T09:15:50.098Z,16.20
2023-03-24T09:18:20.132Z,15.80
2023-03-24T09:20:48.860Z,15.70
2023-03-24T09:23:18.384Z,16.20
2023-03-24T09:25:50.140Z,16.30
2023-03-24T09:28:19.179Z,16.60
2023-03-24T09:30:47.601Z,17.10
2023-03-24T09:33:16.063Z,17.40
2023-03-24T09:35:44.350Z,17.80
2023-03-24T09:38:12.537Z,17.70
2023-03-24T09:40:43.772Z,16.70
2023-03-24T09:43:14.650Z,16.60
2023-03-24T09:45:55.055Z,17.30
2023-03-24T09:48:30.558Z,17.60
2023-03-24T09:51:07.521Z,17.40
2023-03-24T09:53:57.419Z,17.20
2023-03-24T09:56:26.597Z,17.80
2023-03-24T09:59:06.394Z,17.80
2023-03-24T10:01:36.537Z,17.50
2023-03-24T10:04:11.777Z,17.90
2023-03-24T10:06:44.782Z,17.20
2023-03-24T10:09:29.731Z,17.60
2023-03-24T10:12:15.886Z,17.90
2023-03-24T10:14:58.170Z,18.00
2023-03-24T10:17:55.119Z,17.30
2023-03-24T10:20:34.989Z,17.70
2023-03-24T10:23:22.992Z,17.80
2023-03-24T10:26:28.791Z,18.10
2023-03-24T10:29:06.283Z,17.90
2023-03-24T10:31:36.556Z,18.00
2023-03-24T10:34:05.424Z,18.20
2023-03-24T10:36:33.892Z,18.20
2023-03-24T10:39:12.821Z,18.50
2023-03-24T10:41:48.804Z,18.50
2023-03-24T10:44:19.009Z,18.50
2023-03-24T10:46:51.177Z,18.20
2023-03-24T10:49:21.644Z,18.00
2023-03-24T10:51:52.705Z,18.00
2023-03-24T10:54:22.461Z,17.80
2023-03-24T10:56:52.791Z,17.80
2023-03-24T10:59:32.423Z,18.00
2023-03-24T11:02:16.431Z,17.80
2023-03-24T11:05:13.011Z,17.90
2023-03-24T11:07:48.063Z,18.00
2023-03-24T11:10:42.316Z,18.20
2023-03-24T11:13:26.624Z,18.40
2023-03-24T11:16:09.448Z,18.60
2023-03-24T11:18:37.893Z,18.30
2023-03-24T11:21:08.168Z,18.40
2023-03-24T11:23:46.187Z,18.60
2023-03-24T11:26:17.523Z,18.60
2023-03-24T11:29:00.366Z,18.60
2023-03-24T11:31:31.419Z,18.70
2023-03-24T11:34:03.910Z,19.00
2023-03-24T11:36:33.418Z,18.80
2023-03-24T11:39:34.434Z,18.70
2023-03-24T11:42:10.476Z,18.60
2023-03-24T11:44:38.458Z,18.60
2023-03-24T11:47:29.746Z,18.50
2023-03-24T11:50:09.416Z,18.30
2023-03-24T11:53:15.978Z,18.70
2023-03-24T11:55:53.860Z,19.20
2023-03-24T11:58:37.396Z,19.20
2023-03-24T12:01:08.025Z,18.90
2023-03-24T12:03:36.208Z,19.10
2023-03-24T12:06:18.345Z,19.10
2023-03-24T12:09:12.364Z,19.00
2023-03-24T12:11:56.208Z,19.10
2023-03-24T12:14:33.911Z,19.30
2023-03-24T12:17:08.639Z,19.20
2023-03-24T12:19:57.514Z,19.50
2023-03-24T12:22:34.225Z,19.60
2023-03-24T12:25:11.264Z,19.50
2023-03-24T12:27:56.210Z,19.50
2023-03-24T12:30:25.964Z,19.80
2023-03-24T12:33:41.617Z,19.40
2023-03-24T12:36:24.900Z,19.60
2023-03-24T12:39:02.800Z,19.60
2023-03-24T12:41:52.690Z,19.70
2023-03-24T12:44:23.403Z,19.70
2023-03-24T12:47:12.681Z,19.80
2023-03-24T12:50:15.343Z,19.80
2023-03-24T12:53:06.705Z,19.70
2023-03-24T12:55:49.722Z,19.70
2023-03-24T12:58:36.738Z,19.70
2023-03-24T13:01:21.726Z,19.70
2023-03-24T13:04:00.676Z,19.90
2023-03-24T13:06:34.664Z,19.80
2023-03-24T13:09:06.043Z,19.90
2023-03-24T13:12:07.854Z,19.90
2023-03-24T13:14:50.747Z,20.00
2023-03-24T13:17:30.937Z,20.10
2023-03-24T13:20:02.213Z,20.10
2023-03-24T13:22:32.057Z,20.20
2023-03-24T13:25:01.869Z,20.00
2023-03-24T13:27:39.149Z,19.70
2023-03-24T13:30:16.455Z,19.50
2023-03-24T13:32:55.300Z,19.40
2023-03-24T13:35:58.931Z,19.60
2023-03-24T13:38:46.391Z,19.50
2023-03-24T13:41:30.871Z,19.50
2023-03-24T13:44:19.435Z,19.50
2023-03-24T13:47:13.964Z,19.30
2023-03-24T13:49:47.543Z,19.30
2023-03-24T13:52:46.959Z,19.30
2023-03-24T13:55:23.883Z,19.20
2023-03-24T13:58:05.010Z,19.40
2023-03-24T14:00:33.163Z,19.60
2023-03-24T14:03:31.398Z,19.70
2023-03-24T14:06:02.411Z,19.70
2023-03-24T14:08:52.230Z,19.70
2023-03-24T14:11:50.164Z,19.70
2023-03-24T14:14:25.455Z,19.60
2023-03-24T14:17:06.623Z,19.60
2023-03-24T14:20:08.817Z,19.60
2023-03-24T14:22:41.801Z,19.70
2023-03-24T14:25:15.779Z,19.70
2023-03-24T14:27:46.089Z,19.70
2023-03-24T14:30:21.533Z,19.50
2023-03-24T14:33:01.092Z,19.30
2023-03-24T14:35:44.516Z,19.30
2023-03-24T14:38:15.811Z,19.30
2023-03-24T14:40:49.861Z,19.10
2023-03-24T14:43:50.168Z,19.30
2023-03-24T14:46:21.021Z,19.40
2023-03-24T14:49:02.343Z,19.50
2023-03-24T14:51:36.639Z,19.40
2023-03-24T14:54:16.677Z,19.60
2023-03-24T14:56:50.135Z,19.70
2023-03-24T14:59:24.268Z,19.60
2023-03-24T15:02:00.750Z,19.50
2023-03-24T15:04:28.962Z,19.60
2023-03-24T15:06:56.964Z,19.60
2023-03-24T15:09:25.214Z,19.70
2023-03-24T15:11:53.453Z,19.60
2023-03-24T15:14:26.021Z,19.40
2023-03-24T15:17:21.979Z,19.40
2023-03-24T15:19:55.265Z,19.50
2023-03-24T15:22:23.440Z,19.50
2023-03-24T15:24:52.450Z,19.40
2023-03-24T15:27:26.771Z,19.50
2023-03-24T15:29:59.776Z,19.60
2023-03-24T15:32:32.227Z,19.60
2023-03-24T15:35:05.968Z,19.60
2023-03-24T15:37:40.582Z,19.50
2023-03-24T15:40:27.295Z,19.40
2023-03-24T15:43:04.534Z,19.40
2023-03-24T15:45:44.218Z,19.40
2023-03-24T15:48:18.546Z,19.30
2023-03-24T15:51:02.081Z,19.10
2023-03-24T15:53:42.467Z,19.10
2023-03-24T15:56:29.177Z,19.00
2023-03-24T15:59:13.620Z,19.00
2023-03-24T16:01:44.871Z,19.00
2023-03-24T16:04:19.325Z,18.90
2023-03-24T16:06:54.470Z,18.70
2023-03-24T16:09:27.873Z,18.70
2023-03-24T16:11:56.247Z,18.70
2023-03-24T16:14:29.781Z,18.70
2023-03-24T16:17:00.659Z,18.60
2023-03-24T16:19:29.113Z,18.60
2023-03-24T16:21:58.082Z,18.60
2023-03-24T16:24:26.498Z,18.50
2023-03-24T16:26:55.000Z,18.40
2023-03-24T16:29:24.279Z,18.40
2023-03-24T16:31:56.151Z,18.40
2023-03-24T16:34:24.518Z,18.30
2023-03-24T16:36:54.554Z,18.00
2023-03-24T16:39:25.182Z,17.90
2023-03-24T16:41:53.553Z,17.80
2023-03-24T16:44:22.146Z,17.70
2023-03-24T16:46:53.973Z,17.60
2023-03-24T16:49:23.982Z,17.40
2023-03-24T16:51:53.290Z,17.30
2023-03-24T16:54:21.607Z,17.20
2023-03-24T16:56:50.055Z,17.10
2023-03-24T16:59:18.055Z,17.00
2023-03-24T17:01:46.820Z,17.00
2023-03-24T17:04:19.644Z,16.90
2023-03-24T17:06:55.100Z,16.70
2023-03-24T17:09:23.439Z,16.70
2023-03-24T17:11:57.615Z,16.60
2023-03-24T17:14:25.636Z,16.50
2023-03-24T17:16:53.929Z,16.40
2023-03-24T17:19:23.678Z,16.30
2023-03-24T17:22:02.109Z,16.20
2023-03-24T17:24:36.146Z,16.20
2023-03-24T17:27:10.484Z,16.10
2023-03-24T17:29:38.462Z,16.00
2023-03-24T17:32:06.568Z,15.90
2023-03-24T17:34:34.580Z,15.80
2023-03-24T17:37:02.477Z,15.70
2023-03-24T17:39:30.606Z,15.70
2023-03-24T17:42:01.497Z,15.60
2023-03-24T17:44:29.926Z,15.50
2023-03-24T17:46:58.108Z,15.40
2023-03-24T17:49:26.713Z,15.30
2023-03-24T17:51:54.995Z,15.50
2023-03-24T17:54:23.123Z,15.20
2023-03-24T17:56:51.720Z,15.10
2023-03-24T17:59:19.689Z,15.00
2023-03-24T18:01:48.140Z,15.00
2023-03-24T18:04:17.437Z,14.90
2023-03-24T18:06:46.938Z,14.90
2023-03-24T18:09:15.584Z,14.80
2023-03-24T18:11:44.448Z,14.80
2023-03-24T18:14:13.189Z,14.70
2023-03-24T18:16:41.697Z,14.70
2023-03-24T18:19:10.448Z,14.60
2023-03-24T18:21:39.830Z,14.60
2023-03-24T18:24:08.927Z,14.50
2023-03-24T18:26:37.155Z,14.50
2023-03-24T18:35:16.451Z,14.40
2023-03-24T18:37:45.722Z,14.30
2023-03-24T18:41:05.224Z,14.20
2023-03-24T18:43:45.232Z,14.20
2023-03-24T18:46:13.989Z,14.10
2023-03-24T18:48:43.412Z,14.00
2023-03-24T18:51:12.215Z,14.00
2023-03-24T18:53:40.881Z,13.90
2023-03-24T18:56:09.439Z,13.90
2023-03-24T18:58:43.444Z,13.90
2023-03-24T19:01:14.928Z,13.80
2023-03-24T19:03:44.963Z,13.70
2023-03-24T19:06:14.567Z,13.70
2023-03-24T19:08:46.306Z,13.60
2023-03-24T19:11:15.951Z,13.50
2023-03-24T19:13:47.640Z,13.50
2023-03-24T19:16:15.869Z,13.50
2023-03-24T19:18:45.054Z,13.40
2023-03-24T19:21:14.025Z,13.30
2023-03-24T19:23:42.137Z,13.30
2023-03-24T19:26:11.010Z,13.20
2023-03-24T19:28:39.020Z,13.20
2023-03-24T19:31:09.878Z,13.10
2023-03-24T19:33:38.823Z,13.00
2023-03-24T19:36:09.156Z,13.00
2023-03-24T19:38:38.594Z,12.90
2023-03-24T19:41:09.119Z,12.90
2023-03-24T19:43:37.108Z,12.80
2023-03-24T19:46:06.594Z,12.80
2023-03-24T19:48:35.930Z,12.80
2023-03-24T19:51:04.437Z,12.80
2023-03-24T19:53:58.143Z,12.80
2023-03-24T19:56:26.652Z,12.80
2023-03-24T19:58:54.665Z,12.80
2023-03-24T20:01:24.033Z,12.80
2023-03-24T20:03:52.285Z,12.80
2023-03-24T20:06:20.819Z,12.80
2023-03-24T20:08:48.848Z,12.80
2023-03-24T20:11:17.467Z,12.70
2023-03-24T20:13:45.926Z,12.70
2023-03-24T20:16:14.143Z,12.70
2023-03-24T20:18:42.424Z,12.70
2023-03-24T20:21:12.312Z,12.70
2023-03-24T20:23:40.412Z,12.70
2023-03-24T20:26:08.864Z,12.70
2023-03-24T20:28:36.906Z,12.60
2023-03-24T20:31:04.992Z,12.60
2023-03-24T20:33:33.312Z,12.60
2023-03-24T20:36:02.342Z,12.60
2023-03-24T20:38:31.083Z,12.50
2023-03-24T20:41:04.091Z,12.40
2023-03-24T20:43:37.403Z,12.40
2023-03-24T20:46:07.941Z,12.30
2023-03-24T20:48:36.714Z,12.30
2023-03-24T20:51:05.385Z,12.10
2023-03-24T20:53:35.043Z,12.10
2023-03-24T20:56:06.725Z,12.00
2023-03-24T20:58:38.023Z,11.90
2023-03-24T21:01:11.808Z,11.90
2023-03-24T21:03:41.014Z,11.90
2023-03-24T21:06:11.003Z,11.80
2023-03-24T21:08:43.880Z,11.80
2023-03-24T21:11:14.188Z,11.70
2023-03-24T21:13:42.338Z,11.80
2023-03-24T21:16:12.279Z,11.70
2023-03-24T21:18:44.047Z,11.70
2023-03-24T21:21:13.553Z,11.70
2023-03-24T21:23:42.728Z,11.60
2023-03-24T21:26:15.308Z,11.60
2023-03-24T21:28:44.992Z,11.60
2023-03-24T21:31:29.367Z,11.60
2023-03-24T21:33:58.507Z,11.60
2023-03-24T21:36:30.995Z,11.60
2023-03-24T21:38:59.819Z,11.60
2023-03-24T21:41:29.001Z,11.50
2023-03-24T21:44:00.773Z,11.50
2023-03-24T21:46:32.264Z,11.40
2023-03-24T21:49:01.130Z,11.40
2023-03-24T21:51:34.474Z,11.40
2023-03-24T21:54:06.835Z,11.30
2023-03-24T21:56:38.073Z,11.30
2023-03-24T21:59:06.786Z,11.30
2023-03-24T22:01:36.247Z,11.20
2023-03-24T22:04:06.046Z,11.10
2023-03-24T22:06:38.107Z,11.10
2023-03-24T22:09:07.920Z,11.00
2023-03-24T22:11:42.761Z,11.00
2023-03-24T22:14:12.726Z,11.10
2023-03-24T22:16:40.819Z,11.00
2023-03-24T22:19:09.721Z,11.00
2023-03-24T22:21:39.530Z,11.10
2023-03-24T22:24:08.311Z,11.10
2023-03-24T22:26:36.733Z,11.10
2023-03-24T22:29:04.806Z,11.00
2023-03-24T22:31:32.947Z,10.90
2023-03-24T22:34:01.567Z,10.80
2023-03-24T22:36:30.456Z,10.80
2023-03-24T22:38:58.423Z,10.90
2023-03-24T22:41:26.455Z,11.00
2023-03-24T22:43:54.559Z,11.00
2023-03-24T22:46:24.621Z,10.90
2023-03-24T22:48:52.902Z,10.80
2023-03-24T22:51:21.633Z,10.80
2023-03-24T22:53:50.417Z,10.80
2023-03-24T22:56:19.234Z,10.80
2023-03-24T22:58:47.253Z,10.80
2023-03-24T23:01:15.268Z,10.80
2023-03-24T23:03:44.076Z,10.90
2023-03-24T23:06:13.378Z,10.80
2023-03-24T23:08:42.732Z,10.70
2023-03-24T23:11:12.101Z,10.60
2023-03-24T23:13:40.749Z,10.50
2023-03-24T23:16:09.593Z,10.50
2023-03-24T23:18:38.420Z,10.60
2023-03-24T23:21:12.046Z,10.60
2023-03-24T23:23:41.471Z,10.50
2023-03-24T23:26:25.140Z,10.50
2023-03-24T23:28:55.403Z,10.50
2023-03-24T23:31:28.194Z,10.50
2023-03-24T23:33:58.054Z,10.40
2023-03-24T23:36:26.694Z,10.30
2023-03-24T23:38:54.987Z,10.30
2023-03-24T23:41:24.626Z,10.40
2023-03-24T23:43:53.900Z,10.40
2023-03-24T23:46:24.075Z,10.40
2023-03-24T23:48:52.539Z,10.40
2023-03-24T23:51:21.377Z,10.20
2023-03-24T23:53:49.448Z,10.10
2023-03-24T23:56:21.818Z,10.10
2023-03-24T23:58:49.883Z,10.10
